Time;durP1;ratioP1;P1;durP2;ratioP2;P2;SDS_P1;SDS_P2;PMS_P1;PMS_P2;Temp;Humidity;BMP_temperature;BMP_pressure;BME280_temperature;BME280_humidity;BME280_pressure;Samples;Min_cycle;Max_cycle;Signal;HPM_P1;HPM_P2
2022/03/12 00:02:23;;;;;;;16.67;7.72;;;11.40;62.40;;;;;;5058389;28;20020;-74
2022/03/12 00:04:49;;;;;;;14.85;7.47;;;11.40;62.30;;;;;;5058482;28;20394;-74
2022/03/12 00:07:16;;;;;;;22.52;7.70;;;11.40;62.40;;;;;;5058332;28;20028;-75
2022/03/12 00:09:43;;;;;;;17.75;7.80;;;11.40;62.50;;;;;;5056895;28;20028;-75
2022/03/12 00:12:11;;;;;;;16.00;8.40;;;11.40;62.40;;;;;;5058375;28;20043;-75
2022/03/12 00:14:37;;;;;;;14.05;6.97;;;11.40;62.50;;;;;;5058325;28;20044;-74
2022/03/12 00:17:03;;;;;;;13.18;7.22;;;11.40;62.40;;;;;;5058315;28;20074;-74
2022/03/12 00:19:31;;;;;;;12.88;7.47;;;11.40;62.40;;;;;;5057738;28;20108;-75
2022/03/12 00:21:58;;;;;;;14.88;7.90;;;11.40;62.40;;;;;;5058328;28;20052;-74
2022/03/12 00:24:28;;;;;;;12.52;7.10;;;11.40;62.50;;;;;;5057053;28;20082;-74
2022/03/12 00:26:54;;;;;;;13.07;7.78;;;11.40;62.50;;;;;;5058161;28;20029;-75
2022/03/12 00:29:21;;;;;;;14.38;7.40;;;11.40;62.40;;;;;;5056927;28;20021;-74
2022/03/12 00:31:50;;;;;;;11.93;7.43;;;11.40;62.50;;;;;;5056787;28;20078;-74
2022/03/12 00:34:17;;;;;;;12.55;7.03;;;11.40;62.50;;;;;;5059485;28;20489;-74
2022/03/12 00:36:49;;;;;;;11.73;7.13;;;11.40;62.50;;;;;;5056944;28;20541;-74
2022/03/12 00:39:15;;;;;;;11.05;7.35;;;11.40;62.50;;;;;;5056722;28;20249;-74
2022/03/12 00:41:42;;;;;;;13.20;8.10;;;11.40;62.60;;;;;;5057777;28;20029;-74
2022/03/12 00:44:09;;;;;;;11.43;7.15;;;11.40;62.50;;;;;;5053660;28;20013;-74
2022/03/12 00:46:35;;;;;;;11.30;7.20;;;11.40;62.40;;;;;;5053703;28;20025;-75
2022/03/12 00:49:01;;;;;;;11.35;7.07;;;11.40;62.40;;;;;;5053442;28;20024;-75
2022/03/12 00:51:26;;;;;;;12.70;7.25;;;11.40;62.40;;;;;;5054592;28;20035;-75
2022/03/12 00:53:52;;;;;;;12.57;6.63;;;11.30;62.30;;;;;;5053397;28;20039;-74
2022/03/12 00:56:17;;;;;;;27.63;7.78;;;11.40;62.40;;;;;;5054428;28;20025;-74
2022/03/12 00:58:45;;;;;;;26.58;8.02;;;11.30;62.30;;;;;;5054597;28;20394;-74
2022/03/12 01:01:11;;;;;;;16.67;6.90;;;11.30;62.30;;;;;;5054384;28;20512;-74
2022/03/12 01:03:37;;;;;;;13.00;6.47;;;11.30;62.20;;;;;;5053433;28;20047;-75
2022/03/12 01:06:04;;;;;;;13.02;7.00;;;11.30;62.00;;;;;;5054267;28;20490;-74
2022/03/12 01:08:30;;;;;;;10.13;6.40;;;11.30;61.80;;;;;;5053027;28;20028;-74
2022/03/12 01:11:04;;;;;;;12.25;6.82;;;11.30;61.70;;;;;;5054265;28;20044;-75
2022/03/12 01:13:30;;;;;;;12.43;6.05;;;11.30;61.60;;;;;;5053234;28;20482;-74
2022/03/12 01:15:56;;;;;;;16.00;6.78;;;11.30;61.60;;;;;;5054282;28;20032;-74
2022/03/12 01:18:23;;;;;;;45.33;8.32;;;11.30;61.50;;;;;;5053687;28;20029;-74
2022/03/12 01:20:50;;;;;;;15.10;6.68;;;11.30;61.70;;;;;;5054075;28;20428;-74
2022/03/12 01:23:18;;;;;;;13.52;6.20;;;11.30;61.70;;;;;;5052768;28;20545;-74
2022/03/12 01:25:46;;;;;;;18.75;6.70;;;11.30;61.40;;;;;;5054188;28;20100;-74
2022/03/12 01:28:15;;;;;;;16.88;6.60;;;11.30;61.40;;;;;;5053889;28;20028;-74
2022/03/12 01:30:41;;;;;;;22.33;7.68;;;11.30;61.40;;;;;;5052552;28;20036;-74
2022/03/12 01:33:07;;;;;;;101.78;11.70;;;11.30;61.50;;;;;;5053671;28;20113;-74
2022/03/12 01:35:33;;;;;;;23.70;7.40;;;11.30;61.80;;;;;;5053952;28;20075;-74
2022/03/12 01:38:01;;;;;;;17.77;6.50;;;11.30;61.70;;;;;;5053321;28;20025;-75
2022/03/12 01:40:28;;;;;;;14.25;6.20;;;11.30;61.50;;;;;;5053581;28;20025;-76
2022/03/12 01:42:55;;;;;;;19.83;7.07;;;11.30;61.40;;;;;;5052695;28;20055;-75
2022/03/12 01:45:27;;;;;;;21.45;6.72;;;11.30;61.50;;;;;;5053556;28;20550;-75
2022/03/12 01:47:57;;;;;;;20.73;6.93;;;11.30;61.50;;;;;;5053496;28;20024;-75
2022/03/12 01:50:26;;;;;;;37.85;7.95;;;11.30;61.40;;;;;;5052074;28;20021;-76
2022/03/12 01:52:57;;;;;;;16.45;6.93;;;11.20;61.70;;;;;;5052561;28;20112;-74
2022/03/12 01:55:22;;;;;;;16.67;6.30;;;11.30;61.50;;;;;;5052873;28;20025;-76
2022/03/12 01:57:48;;;;;;;17.27;6.15;;;11.30;61.50;;;;;;5053412;28;20091;-75
2022/03/12 02:00:24;;;;;;;24.88;7.30;;;11.30;61.50;;;;;;5053177;28;20436;-75
2022/03/12 02:02:54;;;;;;;17.75;6.38;;;11.30;61.30;;;;;;5045225;28;20029;-76
2022/03/12 02:05:21;;;;;;;26.80;6.57;;;11.30;61.30;;;;;;5052140;28;20405;-75
2022/03/12 02:07:47;;;;;;;24.17;6.80;;;11.20;61.20;;;;;;5033236;28;20029;-76
2022/03/12 02:10:18;;;;;;;27.13;6.93;;;11.30;61.30;;;;;;5033294;28;20521;-77
2022/03/12 02:12:43;;;;;;;26.05;7.00;;;11.30;61.20;;;;;;5044358;28;20024;-76
2022/03/12 02:15:09;;;;;;;13.40;5.80;;;11.20;61.20;;;;;;5053323;28;20017;-74
2022/03/12 02:17:37;;;;;;;21.40;6.00;;;11.20;61.20;;;;;;5052754;28;20110;-75
2022/03/12 02:20:04;;;;;;;15.45;6.50;;;11.20;61.10;;;;;;5052981;28;20549;-75
2022/03/12 02:22:30;;;;;;;14.13;5.60;;;11.20;61.10;;;;;;5055659;28;20032;-75
2022/03/12 02:24:55;;;;;;;14.38;5.72;;;11.20;61.00;;;;;;5073092;28;20405;-75
2022/03/12 02:27:25;;;;;;;15.55;6.28;;;11.20;60.90;;;;;;5072810;28;20087;-75
2022/03/12 02:29:57;;;;;;;16.05;5.78;;;11.20;60.80;;;;;;5073273;28;20035;-75
2022/03/12 02:32:22;;;;;;;12.82;5.80;;;11.20;60.70;;;;;;5072308;28;20020;-75
2022/03/12 02:34:50;;;;;;;12.50;6.35;;;11.20;60.70;;;;;;5071608;28;20028;-75
2022/03/12 02:37:30;;;;;;;11.20;4.95;;;11.20;60.80;;;;;;5072653;28;20374;-75
2022/03/12 02:40:01;;;;;;;14.52;5.38;;;11.20;60.60;;;;;;5071323;28;20477;-75
2022/03/12 02:42:28;;;;;;;17.00;5.70;;;11.20;60.60;;;;;;5072676;28;20043;-76
2022/03/12 02:44:54;;;;;;;11.30;5.68;;;11.20;60.50;;;;;;5072653;28;20154;-75
2022/03/12 02:47:31;;;;;;;12.13;5.70;;;11.20;60.40;;;;;;5062393;28;20029;-75
2022/03/12 02:49:59;;;;;;;10.90;5.50;;;11.20;60.50;;;;;;5055035;28;20025;-74
2022/03/12 02:52:27;;;;;;;10.60;5.75;;;11.20;60.60;;;;;;5072493;28;20043;-75
2022/03/12 02:54:55;;;;;;;13.45;5.28;;;11.20;60.50;;;;;;5070272;28;20099;-75
2022/03/12 02:57:27;;;;;;;10.90;5.28;;;11.20;60.60;;;;;;5052380;28;20049;-75
2022/03/12 02:59:54;;;;;;;10.32;5.47;;;11.20;60.70;;;;;;5053863;28;20402;-75
2022/03/12 03:02:58;;;;;;;11.43;5.35;;;11.20;60.70;;;;;;5051955;28;20029;-75
2022/03/12 03:05:16;;;;;;;12.90;5.80;;;11.20;60.70;;;;;;5050863;28;20128;-75
2022/03/12 03:07:45;;;;;;;13.23;5.95;;;11.20;60.70;;;;;;5060099;28;20528;-76
2022/03/12 03:10:28;;;;;;;15.43;7.18;;;11.20;60.70;;;;;;5072252;28;20056;-75
2022/03/12 03:12:54;;;;;;;17.65;7.20;;;11.20;60.70;;;;;;5072419;28;20025;-75
2022/03/12 03:15:19;;;;;;;13.98;7.43;;;11.20;60.70;;;;;;5071165;28;20020;-75
2022/03/12 03:17:46;;;;;;;15.52;6.68;;;11.20;60.70;;;;;;5071526;28;20077;-75
2022/03/12 03:20:12;;;;;;;20.15;7.45;;;11.20;60.70;;;;;;5071998;28;20480;-75
2022/03/12 03:22:37;;;;;;;17.42;7.68;;;11.20;60.60;;;;;;5072196;28;20081;-75
2022/03/12 03:25:03;;;;;;;13.70;7.07;;;11.20;60.80;;;;;;5060672;28;20116;-75
2022/03/12 03:27:29;;;;;;;15.40;6.63;;;11.20;60.70;;;;;;5051769;28;20040;-76
2022/03/12 03:29:55;;;;;;;16.05;6.65;;;11.20;60.60;;;;;;5051919;28;20064;-74
2022/03/12 03:32:22;;;;;;;15.93;7.45;;;11.20;60.60;;;;;;5056989;28;20013;-75
2022/03/12 03:34:48;;;;;;;11.50;6.32;;;11.20;60.70;;;;;;5071763;28;20108;-75
2022/03/12 03:37:13;;;;;;;14.13;6.20;;;11.20;60.50;;;;;;5072009;28;20466;-77
2022/03/12 03:39:40;;;;;;;13.65;6.28;;;11.20;60.40;;;;;;5071817;28;20020;-75
2022/03/12 03:42:06;;;;;;;13.00;6.03;;;11.20;60.30;;;;;;5041236;28;20026;-75
2022/03/12 03:44:31;;;;;;;15.18;7.00;;;11.20;60.20;;;;;;5042885;28;20036;-75
2022/03/12 03:46:57;;;;;;;15.00;5.82;;;11.10;60.10;;;;;;5059677;28;20025;-75
2022/03/12 03:49:24;;;;;;;11.30;5.68;;;11.10;60.10;;;;;;5051767;28;20021;-75
2022/03/12 03:51:51;;;;;;;12.70;6.10;;;11.10;60.00;;;;;;5051706;28;20044;-75
2022/03/12 03:54:17;;;;;;;15.30;7.10;;;11.20;60.00;;;;;;5051713;28;20036;-74
2022/03/12 03:56:43;;;;;;;13.27;6.40;;;11.10;59.90;;;;;;5051830;28;20025;-75
2022/03/12 03:59:09;;;;;;;11.63;5.72;;;11.10;59.80;;;;;;5070995;28;20029;-75
2022/03/12 04:01:42;;;;;;;16.73;5.63;;;11.20;59.90;;;;;;5071610;28;20021;-76
2022/03/12 04:04:12;;;;;;;11.65;5.68;;;11.10;59.80;;;;;;5055027;28;20096;-75
2022/03/12 04:06:38;;;;;;;15.35;6.10;;;11.20;59.80;;;;;;5071270;28;20497;-75
2022/03/12 04:09:03;;;;;;;16.13;6.15;;;11.20;59.80;;;;;;5070393;28;20047;-74
2022/03/12 04:11:29;;;;;;;14.00;5.63;;;11.10;60.30;;;;;;5071587;28;20028;-75
2022/03/12 04:13:58;;;;;;;11.98;5.50;;;11.20;59.70;;;;;;5071768;28;20031;-75
2022/03/12 04:16:23;;;;;;;13.82;5.90;;;11.10;59.50;;;;;;5071670;28;20540;-76
2022/03/12 04:18:50;;;;;;;13.57;5.30;;;11.10;59.40;;;;;;5072427;28;20063;-75
2022/03/12 04:21:17;;;;;;;10.50;5.20;;;11.20;59.20;;;;;;5073943;28;20501;-76
2022/03/12 04:23:45;;;;;;;11.77;5.53;;;11.10;59.20;;;;;;5075475;28;20074;-75
2022/03/12 04:26:11;;;;;;;11.30;5.43;;;11.10;59.20;;;;;;5074055;28;20025;-72
2022/03/12 04:28:38;;;;;;;12.18;5.43;;;11.10;59.20;;;;;;5073764;28;20035;-75
2022/03/12 04:31:05;;;;;;;12.57;5.65;;;11.10;59.20;;;;;;5073677;28;20474;-74
2022/03/12 04:33:31;;;;;;;11.32;5.45;;;11.10;59.10;;;;;;5073520;28;20501;-75
2022/03/12 04:35:58;;;;;;;120.57;14.38;;;11.10;59.10;;;;;;5063607;28;20394;-76
2022/03/12 04:38:25;;;;;;;19.30;5.78;;;11.10;59.10;;;;;;5055081;28;20553;-74
2022/03/12 04:40:51;;;;;;;17.98;5.85;;;11.10;58.90;;;;;;5053740;28;20025;-75
2022/03/12 04:43:17;;;;;;;10.57;5.18;;;11.10;58.90;;;;;;5053694;28;20025;-75
2022/03/12 04:45:44;;;;;;;10.07;4.82;;;11.10;58.90;;;;;;5053709;28;20033;-75
2022/03/12 04:48:15;;;;;;;13.65;5.80;;;11.10;58.90;;;;;;5071990;28;20024;-75
2022/03/12 04:50:41;;;;;;;11.70;5.05;;;11.10;58.70;;;;;;5074894;28;20020;-75
2022/03/12 04:53:08;;;;;;;9.65;4.88;;;11.10;58.70;;;;;;5074899;28;20531;-75
2022/03/12 04:55:36;;;;;;;9.80;4.80;;;11.10;58.70;;;;;;5064037;28;20017;-75
2022/03/12 04:58:02;;;;;;;13.15;5.25;;;11.00;58.50;;;;;;5054650;28;20044;-76
2022/03/12 05:00:30;;;;;;;11.40;6.00;;;11.10;58.50;;;;;;5054394;28;20044;-75
2022/03/12 05:03:08;;;;;;;12.60;4.88;;;11.10;58.40;;;;;;5063939;28;20071;-75
2022/03/12 05:05:39;;;;;;;12.02;4.63;;;11.10;58.50;;;;;;5073443;28;20028;-75
2022/03/12 05:08:10;;;;;;;19.55;5.43;;;11.10;58.60;;;;;;5054381;28;20075;-74
2022/03/12 05:10:37;;;;;;;10.77;5.20;;;11.10;58.60;;;;;;5054288;28;20017;-75
2022/03/12 05:13:03;;;;;;;10.88;5.07;;;11.00;58.50;;;;;;5064154;28;20501;-76
2022/03/12 05:15:37;;;;;;;11.68;4.63;;;11.10;58.50;;;;;;5074447;28;20127;-76
2022/03/12 05:18:06;;;;;;;12.10;4.85;;;11.10;58.50;;;;;;5062199;28;20043;-75
2022/03/12 05:20:32;;;;;;;12.35;4.68;;;11.10;58.50;;;;;;5053945;28;20029;-75
2022/03/12 05:22:58;;;;;;;12.40;5.30;;;11.10;58.50;;;;;;5052886;28;20389;-75
2022/03/12 05:25:25;;;;;;;9.20;4.53;;;11.10;58.60;;;;;;5052988;28;20033;-75
2022/03/12 05:27:53;;;;;;;9.35;4.93;;;11.00;58.60;;;;;;5053844;28;20066;-75
2022/03/12 05:30:19;;;;;;;11.07;5.00;;;11.10;58.70;;;;;;5053345;28;20477;-75
2022/03/12 05:32:46;;;;;;;10.23;5.00;;;11.10;58.80;;;;;;5054006;28;20032;-75
2022/03/12 05:35:11;;;;;;;9.80;4.70;;;11.00;58.70;;;;;;5054017;28;20123;-76
2022/03/12 05:37:38;;;;;;;9.45;4.65;;;11.10;58.80;;;;;;5052469;28;20048;-75
2022/03/12 05:40:07;;;;;;;9.27;4.80;;;11.00;58.60;;;;;;5053456;28;20025;-75
2022/03/12 05:42:34;;;;;;;9.43;4.63;;;11.10;58.70;;;;;;5045351;28;20037;-75
2022/03/12 05:45:05;;;;;;;10.68;4.75;;;11.00;58.70;;;;;;5045236;28;20135;-75
2022/03/12 05:47:32;;;;;;;9.98;4.70;;;11.10;58.60;;;;;;5040879;28;20028;-75
2022/03/12 05:49:59;;;;;;;9.48;4.57;;;11.00;58.70;;;;;;5048881;28;20021;-75
2022/03/12 05:52:24;;;;;;;10.68;4.90;;;11.10;58.70;;;;;;5046722;28;20394;-76
2022/03/12 05:54:50;;;;;;;7.75;4.55;;;11.10;58.60;;;;;;5047769;28;20029;-74
2022/03/12 05:57:15;;;;;;;9.88;4.15;;;11.10;58.60;;;;;;5048821;28;20076;-76
2022/03/12 05:59:41;;;;;;;9.20;4.93;;;11.10;58.60;;;;;;5048789;28;20040;-75
2022/03/12 06:02:07;;;;;;;10.25;5.07;;;11.10;58.50;;;;;;5049005;28;20044;-73
2022/03/12 06:04:33;;;;;;;10.45;4.38;;;11.00;58.40;;;;;;5049725;28;20037;-74
2022/03/12 06:07:00;;;;;;;12.20;5.45;;;11.00;58.00;;;;;;5048319;28;20033;-73
2022/03/12 06:09:26;;;;;;;13.20;5.75;;;11.00;58.30;;;;;;5048149;28;20025;-72
2022/03/12 06:11:52;;;;;;;45.85;9.43;;;11.10;58.20;;;;;;5047861;28;20028;-73
2022/03/12 06:14:18;;;;;;;27.85;9.63;;;11.00;58.20;;;;;;5047303;28;20017;-72
2022/03/12 06:16:48;;;;;;;24.83;10.10;;;11.00;58.20;;;;;;5047656;28;20025;-73
2022/03/12 06:19:19;;;;;;;22.77;11.10;;;11.00;57.90;;;;;;5046734;28;20075;-73
2022/03/12 06:21:45;;;;;;;19.17;10.83;;;11.00;57.50;;;;;;5046757;28;20036;-73
2022/03/12 06:24:12;;;;;;;21.88;11.63;;;11.10;57.60;;;;;;5046645;28;20078;-73
2022/03/12 06:26:39;;;;;;;17.98;12.27;;;11.00;57.50;;;;;;5047854;28;20025;-74
2022/03/12 06:29:07;;;;;;;18.17;12.93;;;11.00;57.40;;;;;;5047713;28;20025;-72
2022/03/12 06:31:33;;;;;;;16.20;12.48;;;11.00;57.30;;;;;;5047671;28;20021;-74
2022/03/12 06:33:59;;;;;;;19.52;13.65;;;11.10;57.40;;;;;;5047959;28;20031;-76
2022/03/12 06:36:25;;;;;;;17.65;13.30;;;11.10;57.30;;;;;;5048352;28;20394;-75
2022/03/12 06:38:50;;;;;;;18.55;12.93;;;11.00;57.20;;;;;;5047714;28;20103;-74
2022/03/12 06:41:18;;;;;;;18.67;13.20;;;11.00;57.10;;;;;;5046831;28;20588;-73
2022/03/12 06:43:44;;;;;;;17.80;12.45;;;11.10;57.00;;;;;;5047720;28;20389;-72
2022/03/12 06:46:15;;;;;;;19.40;12.20;;;11.00;57.00;;;;;;5047826;28;20035;-74
2022/03/12 06:48:42;;;;;;;17.98;12.57;;;11.00;56.80;;;;;;5046222;28;20079;-74
2022/03/12 06:51:08;;;;;;;16.35;12.35;;;11.00;56.80;;;;;;5046293;28;20596;-73
2022/03/12 06:53:34;;;;;;;17.10;12.80;;;11.00;56.80;;;;;;5047766;28;20044;-72
2022/03/12 06:56:00;;;;;;;18.33;13.07;;;11.00;56.80;;;;;;5047462;28;20029;-73
2022/03/12 06:58:26;;;;;;;16.15;12.20;;;11.10;56.90;;;;;;5045454;28;20032;-77
2022/03/12 07:00:52;;;;;;;16.92;12.43;;;11.10;56.80;;;;;;5047295;28;20041;-73
2022/03/12 07:03:17;;;;;;;17.23;11.88;;;11.10;56.80;;;;;;5047333;28;20082;-73
2022/03/12 07:05:43;;;;;;;16.95;12.27;;;11.10;56.80;;;;;;5047291;28;20029;-75
2022/03/12 07:08:09;;;;;;;16.42;11.80;;;11.10;56.80;;;;;;5047026;28;20044;-72
2022/03/12 07:10:35;;;;;;;17.00;11.45;;;11.20;56.80;;;;;;5047428;28;20472;-74
2022/03/12 07:13:00;;;;;;;14.93;10.88;;;11.20;56.60;;;;;;5046937;28;20078;-73
2022/03/12 07:15:26;;;;;;;15.02;11.63;;;11.20;56.50;;;;;;5047189;28;20075;-73
2022/03/12 07:17:52;;;;;;;15.18;11.38;;;11.30;56.60;;;;;;5047212;28;20029;-72
2022/03/12 07:20:18;;;;;;;14.73;10.90;;;11.30;56.50;;;;;;5045637;28;20036;-73
2022/03/12 07:22:44;;;;;;;14.38;11.02;;;11.30;56.50;;;;;;5047065;28;20036;-73
2022/03/12 07:25:12;;;;;;;14.20;10.70;;;11.30;56.40;;;;;;5046198;28;20025;-73
2022/03/12 07:27:38;;;;;;;14.55;10.02;;;11.30;56.40;;;;;;5046885;28;20558;-73
2022/03/12 07:30:05;;;;;;;13.45;9.95;;;11.40;56.30;;;;;;5045525;28;20040;-72
2022/03/12 07:32:31;;;;;;;14.38;10.27;;;11.40;56.40;;;;;;5046714;28;20021;-73
2022/03/12 07:34:57;;;;;;;18.13;10.93;;;11.40;56.30;;;;;;5047222;28;20386;-74
2022/03/12 07:37:22;;;;;;;15.38;10.23;;;11.40;56.30;;;;;;5047008;28;20086;-73
2022/03/12 07:39:48;;;;;;;13.77;9.80;;;11.50;56.40;;;;;;5046625;28;20059;-73
2022/03/12 07:42:14;;;;;;;15.02;10.48;;;11.50;56.40;;;;;;5045905;28;20025;-74
2022/03/12 07:44:40;;;;;;;11.82;9.30;;;11.50;56.30;;;;;;5046931;28;20029;-74
2022/03/12 07:47:07;;;;;;;14.55;9.77;;;11.50;56.10;;;;;;5045985;28;20037;-77
2022/03/12 07:49:34;;;;;;;14.60;9.38;;;11.60;56.20;;;;;;5045646;28;20079;-75
2022/03/12 07:52:00;;;;;;;12.23;8.68;;;11.60;56.20;;;;;;5046479;28;20060;-74
2022/03/12 07:54:25;;;;;;;13.98;9.02;;;11.60;56.20;;;;;;5051109;28;20104;-74
2022/03/12 07:56:51;;;;;;;11.25;8.43;;;11.70;56.50;;;;;;5049330;28;20231;-73
2022/03/12 07:59:17;;;;;;;12.32;8.18;;;11.70;56.40;;;;;;5048893;28;20013;-75
2022/03/12 08:01:42;;;;;;;11.35;8.05;;;11.70;56.80;;;;;;5050497;28;20040;-74
2022/03/12 08:04:08;;;;;;;11.95;8.32;;;11.70;56.90;;;;;;5049396;28;20040;-75
2022/03/12 08:06:34;;;;;;;11.32;8.52;;;11.70;56.90;;;;;;5049265;28;20846;-74
2022/03/12 08:09:00;;;;;;;12.07;8.05;;;11.80;57.30;;;;;;5050552;28;20025;-75
2022/03/12 08:11:29;;;;;;;12.93;8.85;;;11.80;57.40;;;;;;5050481;28;20104;-76
2022/03/12 08:14:01;;;;;;;13.73;8.20;;;11.80;57.80;;;;;;5050741;28;20094;-75
2022/03/12 08:16:28;;;;;;;11.25;8.05;;;11.90;58.10;;;;;;5050360;28;20021;-75
2022/03/12 08:18:55;;;;;;;12.57;8.80;;;11.90;58.20;;;;;;5049918;28;20551;-77
2022/03/12 08:21:21;;;;;;;12.63;8.77;;;11.90;58.10;;;;;;5049095;28;20045;-76
2022/03/12 08:23:47;;;;;;;11.48;8.70;;;11.90;58.40;;;;;;5050358;28;20243;-75
2022/03/12 08:26:13;;;;;;;12.05;7.70;;;12.00;58.30;;;;;;5050483;28;20051;-75
2022/03/12 08:28:39;;;;;;;11.40;8.30;;;12.00;58.50;;;;;;5049945;28;20055;-74
2022/03/12 08:31:05;;;;;;;12.82;8.00;;;12.00;58.60;;;;;;5050000;28;20066;-76
2022/03/12 08:33:32;;;;;;;11.38;8.13;;;12.00;58.50;;;;;;5049358;28;20021;-76
2022/03/12 08:35:59;;;;;;;11.07;7.57;;;12.00;58.50;;;;;;5049795;28;20017;-75
2022/03/12 08:38:26;;;;;;;12.15;7.47;;;12.10;58.70;;;;;;5050099;28;20029;-75
2022/03/12 08:40:52;;;;;;;12.98;8.10;;;12.10;58.60;;;;;;5050047;28;20021;-75
2022/03/12 08:43:18;;;;;;;10.93;7.82;;;12.10;58.70;;;;;;5049972;28;20027;-73
2022/03/12 08:45:44;;;;;;;11.60;8.25;;;12.20;58.60;;;;;;5049871;28;20029;-76
2022/03/12 08:48:10;;;;;;;10.75;7.70;;;12.20;58.60;;;;;;5050195;28;20826;-73
2022/03/12 08:50:35;;;;;;;11.88;8.95;;;12.20;58.50;;;;;;5048225;28;20036;-72
2022/03/12 08:53:01;;;;;;;11.88;8.45;;;12.20;58.50;;;;;;5050022;28;20413;-73
2022/03/12 08:55:27;;;;;;;11.40;8.10;;;12.20;58.60;;;;;;5047079;28;20021;-72
2022/03/12 08:57:53;;;;;;;13.23;8.57;;;12.30;58.70;;;;;;5048287;28;20410;-73
2022/03/12 09:00:20;;;;;;;10.43;7.55;;;12.30;58.80;;;;;;5046944;28;20082;-73
2022/03/12 09:02:47;;;;;;;11.35;7.63;;;12.30;58.90;;;;;;5048130;28;20064;-72
2022/03/12 09:05:14;;;;;;;11.23;8.05;;;12.30;59.00;;;;;;5047090;28;20081;-73
2022/03/12 09:07:42;;;;;;;10.02;7.45;;;12.30;59.00;;;;;;5048811;28;20025;-75
2022/03/12 09:10:12;;;;;;;10.40;7.65;;;12.30;59.10;;;;;;5049045;28;21017;-74
2022/03/12 09:12:40;;;;;;;10.30;7.90;;;12.40;59.20;;;;;;5049123;28;20028;-77
2022/03/12 09:15:07;;;;;;;10.93;7.88;;;12.40;59.20;;;;;;5047977;28;20025;-75
2022/03/12 09:17:33;;;;;;;12.48;7.88;;;12.40;59.30;;;;;;5047668;28;20553;-74
2022/03/12 09:19:58;;;;;;;10.07;7.22;;;12.40;59.30;;;;;;5049052;28;20074;-75
2022/03/12 09:22:24;;;;;;;12.48;8.32;;;12.40;59.40;;;;;;5048553;28;20622;-72
2022/03/12 09:24:50;;;;;;;9.05;7.03;;;12.40;59.50;;;;;;5047420;28;20079;-76
2022/03/12 09:27:16;;;;;;;9.90;7.40;;;12.40;59.60;;;;;;5048861;28;20037;-73
2022/03/12 09:29:41;;;;;;;10.73;7.35;;;12.40;59.70;;;;;;5049003;28;20422;-72
2022/03/12 09:32:08;;;;;;;11.25;7.65;;;12.40;59.70;;;;;;5047577;28;20080;-74
2022/03/12 09:34:34;;;;;;;10.70;7.43;;;12.40;59.80;;;;;;5048816;28;20025;-71
2022/03/12 09:37:03;;;;;;;11.45;7.90;;;12.40;59.80;;;;;;5048754;28;20073;-73
2022/03/12 09:39:29;;;;;;;9.77;7.28;;;12.50;59.90;;;;;;5048716;28;20029;-73
2022/03/12 09:41:54;;;;;;;10.77;6.88;;;12.40;59.90;;;;;;5047112;28;20539;-76
2022/03/12 09:44:20;;;;;;;10.23;6.75;;;12.50;59.90;;;;;;5047517;28;20048;-73
2022/03/12 09:46:46;;;;;;;10.52;6.80;;;12.50;59.80;;;;;;5048285;28;20071;-72
2022/03/12 09:49:11;;;;;;;14.85;7.32;;;12.50;59.80;;;;;;5047194;28;20123;-72
2022/03/12 09:51:38;;;;;;;19.40;7.88;;;12.60;59.70;;;;;;5047616;28;20108;-74
2022/03/12 09:54:04;;;;;;;24.20;7.95;;;12.50;59.20;;;;;;5048428;28;20029;-72
2022/03/12 09:56:30;;;;;;;13.43;7.03;;;12.60;59.00;;;;;;5047553;28;20025;-71
2022/03/12 09:58:56;;;;;;;14.57;7.22;;;12.60;59.20;;;;;;5048622;28;20036;-75
2022/03/12 10:01:22;;;;;;;15.40;6.47;;;12.60;59.50;;;;;;5048084;28;20039;-75
2022/03/12 10:03:48;;;;;;;13.20;6.90;;;12.60;59.60;;;;;;5047047;28;20123;-75
2022/03/12 10:06:16;;;;;;;16.10;8.05;;;12.60;59.70;;;;;;5047212;28;20021;-71
2022/03/12 10:08:43;;;;;;;17.77;7.13;;;12.60;59.90;;;;;;5047471;28;20039;-75
2022/03/12 10:11:09;;;;;;;17.42;7.28;;;12.60;60.60;;;;;;5047025;28;20025;-77
2022/03/12 10:13:35;;;;;;;20.90;7.85;;;12.50;60.10;;;;;;5047869;28;20033;-74
2022/03/12 10:16:01;;;;;;;18.45;7.57;;;12.50;60.30;;;;;;5047389;28;20028;-74
2022/03/12 10:18:27;;;;;;;15.85;7.28;;;12.60;60.50;;;;;;5046256;28;20056;-76
2022/03/12 10:20:53;;;;;;;17.63;7.60;;;12.60;60.50;;;;;;5050371;28;20025;-75
2022/03/12 10:23:18;;;;;;;16.60;7.80;;;12.60;60.40;;;;;;5042593;28;20028;-72
2022/03/12 10:25:45;;;;;;;19.85;8.10;;;12.60;60.40;;;;;;5047297;28;20028;-76
2022/03/12 10:28:12;;;;;;;20.20;7.57;;;12.60;60.40;;;;;;5037914;28;20448;-74
2022/03/12 10:30:37;;;;;;;22.92;7.97;;;12.70;59.90;;;;;;5033272;28;20032;-75
2022/03/12 10:33:04;;;;;;;16.05;7.70;;;12.70;59.80;;;;;;5045436;28;20029;-73
2022/03/12 10:35:35;;;;;;;12.82;7.00;;;12.70;59.60;;;;;;5027542;28;20672;-74
2022/03/12 10:38:02;;;;;;;17.05;7.28;;;12.70;59.60;;;;;;5027690;28;20419;-76
2022/03/12 10:40:30;;;;;;;15.43;7.78;;;12.70;59.70;;;;;;5035681;28;20067;-75
2022/03/12 10:43:12;;;;;;;14.13;7.05;;;12.70;59.70;;;;;;5045518;28;20094;-75
2022/03/12 10:45:46;;;;;;;16.15;7.50;;;12.70;59.70;;;;;;5047102;28;20028;-73
2022/03/12 10:48:13;;;;;;;11.98;7.28;;;12.80;59.80;;;;;;5046622;28;20717;-72
2022/03/12 10:50:45;;;;;;;12.73;7.28;;;12.70;59.90;;;;;;5047283;28;20505;-77
2022/03/12 10:53:12;;;;;;;13.20;6.95;;;12.80;60.10;;;;;;5046753;28;20025;-71
2022/03/12 10:55:43;;;;;;;15.23;7.93;;;12.80;60.20;;;;;;5047129;28;20021;-74
2022/03/12 10:58:29;;;;;;;13.65;7.68;;;12.80;60.20;;;;;;5036899;28;21346;-72
2022/03/12 11:01:00;;;;;;;13.57;7.55;;;12.80;60.30;;;;;;5035386;28;20051;-72
2022/03/12 11:03:36;;;;;;;13.38;7.75;;;12.80;60.40;;;;;;5039389;28;20052;-74
2022/03/12 11:06:05;;;;;;;13.82;7.60;;;12.80;60.50;;;;;;5031672;28;20021;-75
2022/03/12 11:08:32;;;;;;;15.80;7.65;;;12.80;60.70;;;;;;5038620;28;20120;-78
2022/03/12 11:10:59;;;;;;;14.25;7.32;;;12.80;60.80;;;;;;5045403;28;20021;-77
2022/03/12 11:13:34;;;;;;;11.88;7.00;;;12.80;60.70;;;;;;5045510;28;20025;-75
2022/03/12 11:16:32;;;;;;;10.82;7.65;;;12.90;60.80;;;;;;5045707;28;20483;-74
2022/03/12 11:19:12;;;;;;;11.95;7.28;;;12.80;60.70;;;;;;5035142;28;20031;-75
2022/03/12 11:21:51;;;;;;;12.40;7.57;;;12.90;60.80;;;;;;5039900;28;20025;-77
2022/03/12 11:24:23;;;;;;;11.95;7.43;;;12.90;60.80;;;;;;5039428;28;20029;-76
2022/03/12 11:26:51;;;;;;;11.68;7.10;;;12.90;60.80;;;;;;5039446;28;20029;-77
2022/03/12 11:29:21;;;;;;;12.05;7.50;;;12.90;60.80;;;;;;5045933;28;20017;-75
2022/03/12 11:31:56;;;;;;;10.75;7.28;;;12.90;60.80;;;;;;5031090;28;20406;-75
2022/03/12 11:34:42;;;;;;;11.82;6.97;;;12.90;60.80;;;;;;5043449;28;20029;-75
2022/03/12 11:37:13;;;;;;;12.13;7.88;;;12.90;60.80;;;;;;5044918;28;20025;-73
2022/03/12 11:39:51;;;;;;;12.10;7.20;;;12.90;60.40;;;;;;5044198;28;20036;-78
2022/03/12 11:42:19;;;;;;;10.25;6.80;;;13.00;59.60;;;;;;5044108;28;20021;-75
2022/03/12 11:44:48;;;;;;;11.88;7.05;;;13.00;59.50;;;;;;5045616;28;20052;-75
2022/03/12 11:47:16;;;;;;;11.57;7.05;;;13.10;59.00;;;;;;5045681;28;20028;-74
2022/03/12 11:49:42;;;;;;;13.35;7.60;;;13.10;58.50;;;;;;5043588;28;20047;-74
2022/03/12 11:52:08;;;;;;;16.08;7.70;;;13.10;58.00;;;;;;5043872;28;20036;-73
2022/03/12 11:54:45;;;;;;;17.58;7.90;;;13.10;57.80;;;;;;5043247;28;20029;-73
2022/03/12 11:57:13;;;;;;;12.45;7.07;;;13.10;57.60;;;;;;5044635;28;20091;-73
2022/03/12 11:59:38;;;;;;;14.85;6.82;;;13.10;57.40;;;;;;5044030;28;20703;-74
2022/03/12 12:02:27;;;;;;;15.40;7.18;;;13.10;57.10;;;;;;5045390;28;20132;-73
2022/03/12 12:04:53;;;;;;;11.30;7.07;;;13.20;56.90;;;;;;5044139;28;20478;-77
2022/03/12 12:07:23;;;;;;;19.45;7.75;;;13.20;56.90;;;;;;5045341;28;20033;-74
2022/03/12 12:09:49;;;;;;;16.77;7.25;;;13.20;56.80;;;;;;5044949;28;20021;-73
2022/03/12 12:12:16;;;;;;;15.98;7.15;;;13.30;56.70;;;;;;5044733;28;20029;-75
2022/03/12 12:14:45;;;;;;;14.25;7.22;;;13.30;56.70;;;;;;5044053;28;20064;-73
2022/03/12 12:17:11;;;;;;;12.60;7.25;;;13.20;56.50;;;;;;5045183;28;20021;-73
2022/03/12 12:19:36;;;;;;;13.80;7.78;;;13.20;57.10;;;;;;5042283;28;20059;-71
2022/03/12 12:22:08;;;;;;;15.30;7.18;;;13.20;57.40;;;;;;5043308;28;20017;-76
2022/03/12 12:24:39;;;;;;;14.77;7.82;;;13.20;58.00;;;;;;5045170;28;20029;-74
2022/03/12 12:27:06;;;;;;;445.88;42.03;;;13.10;58.40;;;;;;5044232;28;20025;-75
2022/03/12 12:29:42;;;;;;;545.33;46.40;;;13.10;58.80;;;;;;5045812;28;20017;-74
2022/03/12 12:32:09;;;;;;;289.95;26.00;;;13.20;59.50;;;;;;5044320;28;20404;-72
2022/03/12 12:34:35;;;;;;;153.55;18.42;;;13.10;59.50;;;;;;5046074;28;20018;-74
2022/03/12 12:37:04;;;;;;;165.85;19.17;;;13.10;59.60;;;;;;5045339;28;20033;-74
2022/03/12 12:39:30;;;;;;;94.32;14.02;;;13.00;59.70;;;;;;5046915;28;20066;-72